DBBB/COO METAR and TAF weather

Enter ICAO airport designator
Station Type Date Time Source
DBBB METAR 2021/07/30 07:00 UTC NOAA

DBBB 300700Z 24009KT 8000 SCT009 26/24 Q1014 NOSIG


Station Type Date Time Source
DBBB Decoded METAR 2021/07/30 07:00 UTC NOAA

Cotonou, Benin (DBBB) 06-21N 002-23E 9M
Jul 30, 2021 - 03:00 AM EDT / 2021.07.30 0700 UTC
Wind: from the WSW (240 degrees) at 10 MPH (9 KT):0
Visibility: 4 mile(s):0
Sky conditions: partly cloudy
Temperature: 78 F (26 C)
Dew Point: 75 F (24 C)
Relative Humidity: 88%
Pressure (altimeter): 29.94 in. Hg (1014 hPa)
ob: DBBB 300700Z 24009KT 8000 SCT009 26/24 Q1014 NOSIG
cycle: 7

Station Type Date Time Source
DBBB TAF 2021/07/30 06:46 UTC NOAA

TAF DBBB 300500Z 3006/3112 22010KT 9999 SCT012 PROB30
TEMPO 3106/3112 4000 TSRA BKN010 FEW023CB

Example: see airport list